sensor_id;sensor_type;location;lat;lon;timestamp;pressure;altitude;pressure_sealevel;temperature;humidity
65010;BME280;51556;50.002;22.014;2023-04-30T00:01:53;98974.64;;;13.43;52.43
65010;BME280;51556;50.002;22.014;2023-04-30T00:04:19;98976.89;;;13.44;52.68
65010;BME280;51556;50.002;22.014;2023-04-30T00:06:44;98971.52;;;13.45;52.69
65010;BME280;51556;50.002;22.014;2023-04-30T00:09:09;98974.71;;;13.45;52.35
65010;BME280;51556;50.002;22.014;2023-04-30T00:11:35;98972.23;;;13.45;52.52
65010;BME280;51556;50.002;22.014;2023-04-30T00:14:01;98972.16;;;13.39;52.96
65010;BME280;51556;50.002;22.014;2023-04-30T00:16:26;98969.28;;;13.32;52.95
65010;BME280;51556;50.002;22.014;2023-04-30T00:18:52;98967.09;;;13.29;53.14
65010;BME280;51556;50.002;22.014;2023-04-30T00:21:17;98971.70;;;13.29;53.37
65010;BME280;51556;50.002;22.014;2023-04-30T00:23:42;98972.42;;;13.29;53.45
65010;BME280;51556;50.002;22.014;2023-04-30T00:26:08;98973.50;;;13.28;53.35
65010;BME280;51556;50.002;22.014;2023-04-30T00:28:33;98972.30;;;13.27;53.42
65010;BME280;51556;50.002;22.014;2023-04-30T00:30:58;98966.15;;;13.26;53.83
65010;BME280;51556;50.002;22.014;2023-04-30T00:33:24;98966.13;;;13.27;53.94
65010;BME280;51556;50.002;22.014;2023-04-30T00:35:49;98966.92;;;13.25;54.12
65010;BME280;51556;50.002;22.014;2023-04-30T00:38:14;98966.52;;;13.22;54.33
65010;BME280;51556;50.002;22.014;2023-04-30T00:40:40;98967.15;;;13.19;54.66
65010;BME280;51556;50.002;22.014;2023-04-30T00:43:06;98969.21;;;13.17;54.86
65010;BME280;51556;50.002;22.014;2023-04-30T00:45:31;98962.41;;;13.19;54.83
65010;BME280;51556;50.002;22.014;2023-04-30T00:47:57;98962.06;;;13.19;55.27
65010;BME280;51556;50.002;22.014;2023-04-30T00:50:22;98962.08;;;13.13;55.36
65010;BME280;51556;50.002;22.014;2023-04-30T00:52:48;98969.49;;;13.13;55.78
65010;BME280;51556;50.002;22.014;2023-04-30T00:55:13;98971.76;;;13.10;55.96
65010;BME280;51556;50.002;22.014;2023-04-30T00:57:41;98971.17;;;13.07;56.48
65010;BME280;51556;50.002;22.014;2023-04-30T01:00:07;98973.48;;;13.07;56.43
65010;BME280;51556;50.002;22.014;2023-04-30T01:02:38;98976.14;;;13.06;56.31
65010;BME280;51556;50.002;22.014;2023-04-30T01:05:04;98975.77;;;13.07;56.61
65010;BME280;51556;50.002;22.014;2023-04-30T01:07:30;98973.95;;;13.04;56.93
65010;BME280;51556;50.002;22.014;2023-04-30T01:09:56;98971.84;;;13.04;57.00
65010;BME280;51556;50.002;22.014;2023-04-30T01:12:26;98971.66;;;13.03;57.21
65010;BME280;51556;50.002;22.014;2023-04-30T01:30:06;98979.88;;;12.89;58.46
65010;BME280;51556;50.002;22.014;2023-04-30T01:32:32;98981.48;;;12.85;58.34
65010;BME280;51556;50.002;22.014;2023-04-30T01:34:57;98982.19;;;12.81;58.39
65010;BME280;51556;50.002;22.014;2023-04-30T01:48:07;98988.63;;;12.69;59.37
65010;BME280;51556;50.002;22.014;2023-04-30T01:53:05;98992.51;;;12.65;59.80
65010;BME280;51556;50.002;22.014;2023-04-30T01:55:41;98994.71;;;12.63;59.69
65010;BME280;51556;50.002;22.014;2023-04-30T01:58:14;98994.59;;;12.62;60.06
65010;BME280;51556;50.002;22.014;2023-04-30T02:00:39;98987.98;;;12.63;59.77
65010;BME280;51556;50.002;22.014;2023-04-30T02:03:05;98989.35;;;12.60;60.16
65010;BME280;51556;50.002;22.014;2023-04-30T02:05:30;98989.71;;;12.60;60.03
65010;BME280;51556;50.002;22.014;2023-04-30T02:07:56;98994.63;;;12.61;59.96
65010;BME280;51556;50.002;22.014;2023-04-30T02:10:22;98994.34;;;12.63;60.10
65010;BME280;51556;50.002;22.014;2023-04-30T02:12:48;98990.21;;;12.64;60.07
65010;BME280;51556;50.002;22.014;2023-04-30T02:15:13;98994.51;;;12.59;60.11
65010;BME280;51556;50.002;22.014;2023-04-30T02:17:39;98994.52;;;12.54;60.06
65010;BME280;51556;50.002;22.014;2023-04-30T02:20:05;98995.91;;;12.55;60.23
65010;BME280;51556;50.002;22.014;2023-04-30T02:22:31;98995.08;;;12.58;60.41
65010;BME280;51556;50.002;22.014;2023-04-30T02:24:56;98996.96;;;12.60;60.55
65010;BME280;51556;50.002;22.014;2023-04-30T02:27:22;98994.48;;;12.60;60.77
65010;BME280;51556;50.002;22.014;2023-04-30T02:29:47;98995.68;;;12.61;60.88
65010;BME280;51556;50.002;22.014;2023-04-30T02:32:13;98994.87;;;12.63;60.86
65010;BME280;51556;50.002;22.014;2023-04-30T02:34:39;98992.84;;;12.65;60.80
65010;BME280;51556;50.002;22.014;2023-04-30T02:37:04;98996.08;;;12.68;60.81
65010;BME280;51556;50.002;22.014;2023-04-30T02:39:30;98997.45;;;12.69;60.87
65010;BME280;51556;50.002;22.014;2023-04-30T02:41:55;99001.15;;;12.69;60.67
65010;BME280;51556;50.002;22.014;2023-04-30T02:44:20;99001.77;;;12.67;61.01
65010;BME280;51556;50.002;22.014;2023-04-30T02:46:46;99003.23;;;12.66;60.97
65010;BME280;51556;50.002;22.014;2023-04-30T02:49:11;99003.57;;;12.66;61.15
65010;BME280;51556;50.002;22.014;2023-04-30T02:51:36;99001.48;;;12.66;61.21
65010;BME280;51556;50.002;22.014;2023-04-30T02:54:02;99003.97;;;12.65;61.23
65010;BME280;51556;50.002;22.014;2023-04-30T02:56:27;99002.85;;;12.66;61.31
65010;BME280;51556;50.002;22.014;2023-04-30T02:58:53;99003.48;;;12.68;61.43
65010;BME280;51556;50.002;22.014;2023-04-30T03:01:18;99003.61;;;12.69;61.41
65010;BME280;51556;50.002;22.014;2023-04-30T03:03:43;99005.07;;;12.73;61.41
65010;BME280;51556;50.002;22.014;2023-04-30T03:06:09;99007.52;;;12.74;61.59
65010;BME280;51556;50.002;22.014;2023-04-30T03:08:34;99006.89;;;12.77;61.32
65010;BME280;51556;50.002;22.014;2023-04-30T03:10:59;99014.56;;;12.79;61.43
65010;BME280;51556;50.002;22.014;2023-04-30T03:13:25;99013.14;;;12.79;61.29
65010;BME280;51556;50.002;22.014;2023-04-30T03:15:57;99016.33;;;12.84;61.26
65010;BME280;51556;50.002;22.014;2023-04-30T03:18:23;99018.16;;;12.86;61.55
65010;BME280;51556;50.002;22.014;2023-04-30T03:20:49;99018.77;;;12.89;61.65
65010;BME280;51556;50.002;22.014;2023-04-30T03:23:14;99014.34;;;12.89;61.62
65010;BME280;51556;50.002;22.014;2023-04-30T03:25:39;99017.17;;;12.89;61.77
65010;BME280;51556;50.002;22.014;2023-04-30T03:28:05;99017.26;;;12.87;61.64
65010;BME280;51556;50.002;22.014;2023-04-30T03:30:30;99018.85;;;12.87;61.76
65010;BME280;51556;50.002;22.014;2023-04-30T03:32:55;99021.47;;;12.87;61.88
65010;BME280;51556;50.002;22.014;2023-04-30T03:35:21;99025.15;;;12.88;61.89
65010;BME280;51556;50.002;22.014;2023-04-30T03:37:46;99022.92;;;12.86;62.24
65010;BME280;51556;50.002;22.014;2023-04-30T03:40:11;99028.03;;;12.87;62.26
65010;BME280;51556;50.002;22.014;2023-04-30T03:42:37;99030.31;;;12.87;62.26
65010;BME280;51556;50.002;22.014;2023-04-30T03:45:02;99031.86;;;12.88;62.26
65010;BME280;51556;50.002;22.014;2023-04-30T03:47:28;99033.98;;;12.93;62.13
65010;BME280;51556;50.002;22.014;2023-04-30T03:49:53;99036.55;;;12.95;62.07
65010;BME280;51556;50.002;22.014;2023-04-30T03:52:19;99037.91;;;12.96;62.35
65010;BME280;51556;50.002;22.014;2023-04-30T03:54:45;99041.70;;;12.94;62.27
65010;BME280;51556;50.002;22.014;2023-04-30T03:57:10;99040.65;;;12.89;62.53
65010;BME280;51556;50.002;22.014;2023-04-30T03:59:38;99041.10;;;12.91;62.41
65010;BME280;51556;50.002;22.014;2023-04-30T04:02:03;99046.77;;;12.95;62.74
65010;BME280;51556;50.002;22.014;2023-04-30T04:04:29;99047.09;;;12.96;62.77
65010;BME280;51556;50.002;22.014;2023-04-30T04:06:54;99048.64;;;12.97;62.93
65010;BME280;51556;50.002;22.014;2023-04-30T04:09:19;99052.92;;;13.00;62.78
65010;BME280;51556;50.002;22.014;2023-04-30T04:11:45;99050.27;;;13.04;62.82
65010;BME280;51556;50.002;22.014;2023-04-30T04:14:10;99047.20;;;13.06;62.89
65010;BME280;51556;50.002;22.014;2023-04-30T04:16:35;99052.89;;;13.05;63.05
65010;BME280;51556;50.002;22.014;2023-04-30T04:19:01;99052.69;;;13.06;62.89
65010;BME280;51556;50.002;22.014;2023-04-30T04:21:26;99054.63;;;13.06;63.19
65010;BME280;51556;50.002;22.014;2023-04-30T04:23:52;99053.73;;;13.06;62.93
65010;BME280;51556;50.002;22.014;2023-04-30T04:26:18;99052.48;;;13.11;63.22
65010;BME280;51556;50.002;22.014;2023-04-30T04:28:45;99055.53;;;13.14;63.11
65010;BME280;51556;50.002;22.014;2023-04-30T04:31:12;99056.91;;;13.15;63.30
65010;BME280;51556;50.002;22.014;2023-04-30T04:33:37;99055.70;;;13.14;63.32
65010;BME280;51556;50.002;22.014;2023-04-30T04:36:02;99056.48;;;13.12;63.47
65010;BME280;51556;50.002;22.014;2023-04-30T04:38:28;99054.19;;;13.12;63.65
65010;BME280;51556;50.002;22.014;2023-04-30T04:40:53;99053.42;;;13.14;63.84
65010;BME280;51556;50.002;22.014;2023-04-30T04:43:19;99053.21;;;13.15;63.93
65010;BME280;51556;50.002;22.014;2023-04-30T04:45:44;99053.80;;;13.18;63.83
65010;BME280;51556;50.002;22.014;2023-04-30T04:48:11;99055.34;;;13.19;63.68
65010;BME280;51556;50.002;22.014;2023-04-30T04:50:36;99060.57;;;13.21;63.75
65010;BME280;51556;50.002;22.014;2023-04-30T04:53:01;99064.70;;;13.24;63.81
65010;BME280;51556;50.002;22.014;2023-04-30T04:55:27;99069.10;;;13.29;63.54
65010;BME280;51556;50.002;22.014;2023-04-30T04:57:52;99073.60;;;13.32;63.54
65010;BME280;51556;50.002;22.014;2023-04-30T05:00:18;99073.59;;;13.36;64.00
65010;BME280;51556;50.002;22.014;2023-04-30T05:02:46;99078.36;;;13.39;63.88
65010;BME280;51556;50.002;22.014;2023-04-30T05:05:11;99080.71;;;13.43;64.23
65010;BME280;51556;50.002;22.014;2023-04-30T05:07:36;99079.75;;;13.45;63.96
65010;BME280;51556;50.002;22.014;2023-04-30T05:10:01;99079.88;;;13.46;64.12
65010;BME280;51556;50.002;22.014;2023-04-30T05:12:27;99083.40;;;13.47;64.19
65010;BME280;51556;50.002;22.014;2023-04-30T05:14:52;99086.64;;;13.49;64.55
65010;BME280;51556;50.002;22.014;2023-04-30T05:17:17;99082.61;;;13.53;64.78
65010;BME280;51556;50.002;22.014;2023-04-30T05:19:43;99083.48;;;13.57;65.08
65010;BME280;51556;50.002;22.014;2023-04-30T05:22:09;99083.23;;;13.63;65.09
65010;BME280;51556;50.002;22.014;2023-04-30T05:24:34;99087.13;;;13.71;64.96
65010;BME280;51556;50.002;22.014;2023-04-30T05:27:00;99090.08;;;13.80;64.74
65010;BME280;51556;50.002;22.014;2023-04-30T05:29:27;99093.86;;;13.87;65.20
65010;BME280;51556;50.002;22.014;2023-04-30T05:31:52;99090.75;;;13.89;64.86
65010;BME280;51556;50.002;22.014;2023-04-30T05:34:18;99096.61;;;13.93;65.70
65010;BME280;51556;50.002;22.014;2023-04-30T05:36:43;99096.55;;;13.94;65.79
65010;BME280;51556;50.002;22.014;2023-04-30T05:39:09;99096.13;;;13.96;65.83
65010;BME280;51556;50.002;22.014;2023-04-30T05:41:35;99100.95;;;13.95;66.28
65010;BME280;51556;50.002;22.014;2023-04-30T05:44:00;99094.88;;;13.96;66.39
65010;BME280;51556;50.002;22.014;2023-04-30T05:46:27;99095.86;;;14.02;66.15
65010;BME280;51556;50.002;22.014;2023-04-30T05:48:52;99101.45;;;14.09;66.08
65010;BME280;51556;50.002;22.014;2023-04-30T05:51:17;99099.90;;;14.11;66.34
65010;BME280;51556;50.002;22.014;2023-04-30T05:53:42;99102.92;;;14.18;66.54
65010;BME280;51556;50.002;22.014;2023-04-30T05:56:08;99104.09;;;14.24;66.60
65010;BME280;51556;50.002;22.014;2023-04-30T05:58:33;99107.05;;;14.25;66.40
65010;BME280;51556;50.002;22.014;2023-04-30T06:00:58;99108.73;;;14.27;66.25
65010;BME280;51556;50.002;22.014;2023-04-30T06:03:24;99102.22;;;14.30;66.30
65010;BME280;51556;50.002;22.014;2023-04-30T06:05:49;99106.52;;;14.33;65.99
65010;BME280;51556;50.002;22.014;2023-04-30T06:08:14;99106.77;;;14.40;66.27
65010;BME280;51556;50.002;22.014;2023-04-30T06:10:40;99104.20;;;14.46;66.15
65010;BME280;51556;50.002;22.014;2023-04-30T06:13:06;99107.16;;;14.47;66.55
65010;BME280;51556;50.002;22.014;2023-04-30T06:15:31;99111.04;;;14.51;66.10
65010;BME280;51556;50.002;22.014;2023-04-30T06:17:57;99109.64;;;14.58;66.22
65010;BME280;51556;50.002;22.014;2023-04-30T06:20:22;99108.65;;;14.65;65.92
65010;BME280;51556;50.002;22.014;2023-04-30T06:22:48;99111.45;;;14.69;65.89
65010;BME280;51556;50.002;22.014;2023-04-30T06:25:13;99110.98;;;14.68;66.14
65010;BME280;51556;50.002;22.014;2023-04-30T06:27:38;99111.70;;;14.68;65.96
65010;BME280;51556;50.002;22.014;2023-04-30T06:30:04;99115.40;;;14.68;66.07
65010;BME280;51556;50.002;22.014;2023-04-30T06:32:29;99115.03;;;14.60;66.51
65010;BME280;51556;50.002;22.014;2023-04-30T06:34:55;99116.82;;;14.49;66.69
65010;BME280;51556;50.002;22.014;2023-04-30T06:37:20;99120.43;;;14.44;66.98
65010;BME280;51556;50.002;22.014;2023-04-30T06:39:45;99120.95;;;14.51;66.60
65010;BME280;51556;50.002;22.014;2023-04-30T06:42:11;99121.76;;;14.61;66.25
65010;BME280;51556;50.002;22.014;2023-04-30T06:44:36;99126.90;;;14.68;66.51
65010;BME280;51556;50.002;22.014;2023-04-30T06:47:01;99127.58;;;14.73;66.05
65010;BME280;51556;50.002;22.014;2023-04-30T06:49:27;99131.09;;;14.78;66.15
65010;BME280;51556;50.002;22.014;2023-04-30T06:51:52;99132.20;;;14.73;66.56
65010;BME280;51556;50.002;22.014;2023-04-30T06:54:19;99132.73;;;14.69;66.50
65010;BME280;51556;50.002;22.014;2023-04-30T06:56:47;99131.21;;;14.71;66.33
65010;BME280;51556;50.002;22.014;2023-04-30T06:59:12;99127.95;;;14.77;66.35
65010;BME280;51556;50.002;22.014;2023-04-30T07:01:37;99131.09;;;14.82;66.35
65010;BME280;51556;50.002;22.014;2023-04-30T07:04:03;99129.00;;;14.73;66.67
65010;BME280;51556;50.002;22.014;2023-04-30T07:06:28;99127.65;;;14.76;66.54
65010;BME280;51556;50.002;22.014;2023-04-30T07:08:54;99131.23;;;14.89;66.68
65010;BME280;51556;50.002;22.014;2023-04-30T07:11:19;99130.45;;;15.06;66.31
65010;BME280;51556;50.002;22.014;2023-04-30T07:13:45;99131.31;;;15.21;66.45
65010;BME280;51556;50.002;22.014;2023-04-30T07:16:10;99131.71;;;15.27;66.16
65010;BME280;51556;50.002;22.014;2023-04-30T07:18:36;99133.25;;;15.18;66.25
65010;BME280;51556;50.002;22.014;2023-04-30T07:21:02;99134.60;;;15.16;66.79
65010;BME280;51556;50.002;22.014;2023-04-30T07:23:27;99143.08;;;15.17;66.67
65010;BME280;51556;50.002;22.014;2023-04-30T07:25:53;99140.33;;;15.19;66.60
65010;BME280;51556;50.002;22.014;2023-04-30T07:28:18;99144.38;;;15.11;66.84
65010;BME280;51556;50.002;22.014;2023-04-30T07:30:43;99146.08;;;15.06;66.76
65010;BME280;51556;50.002;22.014;2023-04-30T07:33:09;99146.84;;;15.01;66.99
65010;BME280;51556;50.002;22.014;2023-04-30T07:35:34;99147.14;;;14.98;66.63
65010;BME280;51556;50.002;22.014;2023-04-30T07:38:00;99145.23;;;15.09;66.44
65010;BME280;51556;50.002;22.014;2023-04-30T07:40:25;99150.67;;;15.21;66.33
65010;BME280;51556;50.002;22.014;2023-04-30T07:42:51;99147.13;;;15.28;65.93
65010;BME280;51556;50.002;22.014;2023-04-30T07:45:16;99145.92;;;15.27;65.97
65010;BME280;51556;50.002;22.014;2023-04-30T07:47:42;99139.87;;;15.20;66.04
65010;BME280;51556;50.002;22.014;2023-04-30T07:50:07;99147.86;;;15.01;65.78
65010;BME280;51556;50.002;22.014;2023-04-30T07:52:33;99150.39;;;15.00;65.96
65010;BME280;51556;50.002;22.014;2023-04-30T07:54:58;99148.60;;;15.05;65.87
65010;BME280;51556;50.002;22.014;2023-04-30T07:57:24;99153.54;;;15.05;65.74
65010;BME280;51556;50.002;22.014;2023-04-30T07:59:52;99155.99;;;15.06;65.17
65010;BME280;51556;50.002;22.014;2023-04-30T08:02:17;99157.17;;;15.15;65.23
65010;BME280;51556;50.002;22.014;2023-04-30T08:04:42;99159.08;;;15.26;64.84
65010;BME280;51556;50.002;22.014;2023-04-30T08:07:08;99156.70;;;15.35;64.73
65010;BME280;51556;50.002;22.014;2023-04-30T08:09:33;99159.75;;;15.42;64.49
65010;BME280;51556;50.002;22.014;2023-04-30T08:11:59;99156.98;;;15.52;64.14
65010;BME280;51556;50.002;22.014;2023-04-30T08:14:26;99154.85;;;15.56;64.09
65010;BME280;51556;50.002;22.014;2023-04-30T08:16:51;99161.28;;;15.66;63.86
65010;BME280;51556;50.002;22.014;2023-04-30T08:19:16;99161.30;;;15.69;63.13
65010;BME280;51556;50.002;22.014;2023-04-30T08:21:42;99158.22;;;15.67;62.92
65010;BME280;51556;50.002;22.014;2023-04-30T08:24:10;99160.55;;;15.73;63.06
65010;BME280;51556;50.002;22.014;2023-04-30T08:26:35;99163.91;;;15.84;63.23
65010;BME280;51556;50.002;22.014;2023-04-30T08:29:01;99167.07;;;15.92;62.77
65010;BME280;51556;50.002;22.014;2023-04-30T08:31:26;99167.50;;;15.97;62.40
65010;BME280;51556;50.002;22.014;2023-04-30T08:33:52;99168.35;;;16.01;62.03
65010;BME280;51556;50.002;22.014;2023-04-30T08:36:20;99163.75;;;16.05;62.00
65010;BME280;51556;50.002;22.014;2023-04-30T08:38:45;99160.81;;;16.14;62.13
65010;BME280;51556;50.002;22.014;2023-04-30T08:41:11;99162.85;;;16.26;62.13
65010;BME280;51556;50.002;22.014;2023-04-30T08:43:37;99161.57;;;16.40;61.98
65010;BME280;51556;50.002;22.014;2023-04-30T08:46:03;99165.27;;;16.51;61.54
65010;BME280;51556;50.002;22.014;2023-04-30T08:48:29;99163.75;;;16.62;61.01
65010;BME280;51556;50.002;22.014;2023-04-30T08:50:55;99162.30;;;16.73;60.52
65010;BME280;51556;50.002;22.014;2023-04-30T08:53:23;99158.21;;;16.80;60.27
65010;BME280;51556;50.002;22.014;2023-04-30T08:55:48;99161.39;;;16.87;60.35
65010;BME280;51556;50.002;22.014;2023-04-30T08:58:13;99164.49;;;16.86;59.43
65010;BME280;51556;50.002;22.014;2023-04-30T09:00:39;99168.05;;;16.72;59.20
65010;BME280;51556;50.002;22.014;2023-04-30T09:03:04;99173.92;;;16.58;59.84
65010;BME280;51556;50.002;22.014;2023-04-30T09:05:30;99172.41;;;16.36;60.76
65010;BME280;51556;50.002;22.014;2023-04-30T09:07:55;99178.27;;;16.23;61.03
65010;BME280;51556;50.002;22.014;2023-04-30T09:10:21;99180.82;;;16.11;61.30
65010;BME280;51556;50.002;22.014;2023-04-30T09:13:03;99178.79;;;16.02;61.79
65010;BME280;51556;50.002;22.014;2023-04-30T09:15:29;99182.43;;;16.04;61.66
65010;BME280;51556;50.002;22.014;2023-04-30T09:18:06;99187.85;;;16.09;61.58
65010;BME280;51556;50.002;22.014;2023-04-30T09:20:31;99190.48;;;16.06;61.48
65010;BME280;51556;50.002;22.014;2023-04-30T09:23:06;99198.39;;;16.08;61.62
65010;BME280;51556;50.002;22.014;2023-04-30T09:25:41;99195.89;;;16.04;61.60
65010;BME280;51556;50.002;22.014;2023-04-30T09:28:10;99198.14;;;16.06;61.96
65010;BME280;51556;50.002;22.014;2023-04-30T09:30:39;99201.90;;;16.01;62.36
65010;BME280;51556;50.002;22.014;2023-04-30T09:33:05;99196.66;;;16.03;62.60
65010;BME280;51556;50.002;22.014;2023-04-30T09:35:32;99199.78;;;16.09;62.61
65010;BME280;51556;50.002;22.014;2023-04-30T09:38:01;99193.94;;;16.08;62.29
65010;BME280;51556;50.002;22.014;2023-04-30T09:40:40;99193.91;;;15.98;62.38
65010;BME280;51556;50.002;22.014;2023-04-30T09:43:06;99194.34;;;15.93;62.48
65010;BME280;51556;50.002;22.014;2023-04-30T09:45:44;99197.15;;;15.90;62.96
65010;BME280;51556;50.002;22.014;2023-04-30T09:48:14;99200.48;;;15.84;62.92
65010;BME280;51556;50.002;22.014;2023-04-30T09:50:40;99205.36;;;15.82;63.61
65010;BME280;51556;50.002;22.014;2023-04-30T09:53:06;99211.93;;;15.82;63.61
65010;BME280;51556;50.002;22.014;2023-04-30T09:55:35;99214.20;;;15.86;63.98
65010;BME280;51556;50.002;22.014;2023-04-30T09:58:04;99214.02;;;15.94;63.82
65010;BME280;51556;50.002;22.014;2023-04-30T10:00:30;99212.88;;;15.98;63.95
65010;BME280;51556;50.002;22.014;2023-04-30T10:02:57;99216.68;;;15.97;63.85
65010;BME280;51556;50.002;22.014;2023-04-30T10:05:23;99219.80;;;15.88;63.82
65010;BME280;51556;50.002;22.014;2023-04-30T10:07:49;99221.16;;;15.79;64.14
65010;BME280;51556;50.002;22.014;2023-04-30T10:10:14;99224.21;;;15.67;64.53
65010;BME280;51556;50.002;22.014;2023-04-30T10:12:47;99227.89;;;15.61;64.17
65010;BME280;51556;50.002;22.014;2023-04-30T10:15:15;99227.58;;;15.56;64.40
65010;BME280;51556;50.002;22.014;2023-04-30T10:17:41;99232.29;;;15.46;64.50
65010;BME280;51556;50.002;22.014;2023-04-30T10:20:11;99236.02;;;15.34;64.80
65010;BME280;51556;50.002;22.014;2023-04-30T10:22:37;99245.49;;;15.22;64.83
65010;BME280;51556;50.002;22.014;2023-04-30T10:25:03;99246.42;;;15.05;64.97
65010;BME280;51556;50.002;22.014;2023-04-30T10:27:28;99248.38;;;14.93;65.35
65010;BME280;51556;50.002;22.014;2023-04-30T10:29:54;99253.46;;;14.79;65.54
65010;BME280;51556;50.002;22.014;2023-04-30T10:32:19;99254.63;;;14.73;65.46
65010;BME280;51556;50.002;22.014;2023-04-30T10:39:39;99265.73;;;14.66;65.17
65010;BME280;51556;50.002;22.014;2023-04-30T10:42:05;99259.86;;;14.58;65.06
65010;BME280;51556;50.002;22.014;2023-04-30T10:44:35;99263.20;;;14.55;64.79
65010;BME280;51556;50.002;22.014;2023-04-30T10:47:01;99262.83;;;14.51;64.79
65010;BME280;51556;50.002;22.014;2023-04-30T10:49:27;99267.74;;;14.52;64.99
65010;BME280;51556;50.002;22.014;2023-04-30T10:51:52;99263.11;;;14.53;65.10
65010;BME280;51556;50.002;22.014;2023-04-30T10:54:28;99265.05;;;14.57;64.66
65010;BME280;51556;50.002;22.014;2023-04-30T10:57:10;99271.61;;;14.61;64.30
65010;BME280;51556;50.002;22.014;2023-04-30T10:59:40;99270.02;;;14.61;64.34
65010;BME280;51556;50.002;22.014;2023-04-30T11:02:09;99279.30;;;14.55;64.25
65010;BME280;51556;50.002;22.014;2023-04-30T11:04:39;99286.92;;;14.43;64.29
65010;BME280;51556;50.002;22.014;2023-04-30T11:07:20;99296.73;;;14.32;64.63
65010;BME280;51556;50.002;22.014;2023-04-30T11:09:49;99300.05;;;14.25;64.66
65010;BME280;51556;50.002;22.014;2023-04-30T11:12:18;99300.18;;;14.22;64.30
65010;BME280;51556;50.002;22.014;2023-04-30T11:14:45;99308.77;;;14.19;64.43
65010;BME280;51556;50.002;22.014;2023-04-30T11:17:11;99312.66;;;14.11;64.32
65010;BME280;51556;50.002;22.014;2023-04-30T11:19:47;99316.41;;;14.06;64.20
65010;BME280;51556;50.002;22.014;2023-04-30T11:27:19;99326.15;;;13.83;64.52
65010;BME280;51556;50.002;22.014;2023-04-30T11:29:46;99329.55;;;13.73;64.20
65010;BME280;51556;50.002;22.014;2023-04-30T11:32:11;99334.64;;;13.65;64.12
65010;BME280;51556;50.002;22.014;2023-04-30T11:34:37;99336.96;;;13.55;63.95
65010;BME280;51556;50.002;22.014;2023-04-30T11:37:02;99340.31;;;13.46;63.59
65010;BME280;51556;50.002;22.014;2023-04-30T11:39:27;99344.55;;;13.42;63.22
65010;BME280;51556;50.002;22.014;2023-04-30T11:41:53;99347.58;;;13.36;62.89
65010;BME280;51556;50.002;22.014;2023-04-30T11:44:26;99347.51;;;13.29;62.52
65010;BME280;51556;50.002;22.014;2023-04-30T11:46:51;99353.86;;;13.25;62.55
65010;BME280;51556;50.002;22.014;2023-04-30T11:49:17;99352.89;;;13.27;62.52
65010;BME280;51556;50.002;22.014;2023-04-30T11:51:47;99355.11;;;13.29;62.58
65010;BME280;51556;50.002;22.014;2023-04-30T11:54:12;99355.46;;;13.34;62.14
65010;BME280;51556;50.002;22.014;2023-04-30T11:56:38;99356.53;;;13.38;61.59
65010;BME280;51556;50.002;22.014;2023-04-30T11:59:09;99353.60;;;13.41;61.64
65010;BME280;51556;50.002;22.014;2023-04-30T12:01:35;99352.39;;;13.45;61.68
65010;BME280;51556;50.002;22.014;2023-04-30T12:04:01;99352.00;;;13.51;61.12
65010;BME280;51556;50.002;22.014;2023-04-30T12:06:28;99355.72;;;13.55;60.23
65010;BME280;51556;50.002;22.014;2023-04-30T12:08:54;99358.27;;;13.58;59.99
65010;BME280;51556;50.002;22.014;2023-04-30T12:11:24;99355.02;;;13.60;59.63
65010;BME280;51556;50.002;22.014;2023-04-30T12:13:50;99354.11;;;13.60;59.82
65010;BME280;51556;50.002;22.014;2023-04-30T12:16:16;99353.83;;;13.63;59.98
65010;BME280;51556;50.002;22.014;2023-04-30T12:18:41;99353.45;;;13.68;59.92
65010;BME280;51556;50.002;22.014;2023-04-30T12:21:06;99353.52;;;13.67;59.68
65010;BME280;51556;50.002;22.014;2023-04-30T12:23:33;99356.83;;;13.64;59.89
65010;BME280;51556;50.002;22.014;2023-04-30T12:25:59;99356.19;;;13.62;60.14
65010;BME280;51556;50.002;22.014;2023-04-30T12:28:24;99362.35;;;13.62;60.54
65010;BME280;51556;50.002;22.014;2023-04-30T12:30:49;99358.54;;;13.60;60.20
65010;BME280;51556;50.002;22.014;2023-04-30T12:33:17;99361.48;;;13.62;60.63
65010;BME280;51556;50.002;22.014;2023-04-30T12:35:42;99357.36;;;13.63;60.62
65010;BME280;51556;50.002;22.014;2023-04-30T12:38:08;99359.53;;;13.67;60.84
65010;BME280;51556;50.002;22.014;2023-04-30T12:40:34;99356.98;;;13.64;60.69
65010;BME280;51556;50.002;22.014;2023-04-30T12:43:00;99351.39;;;13.67;61.00
65010;BME280;51556;50.002;22.014;2023-04-30T12:45:44;99352.33;;;13.70;60.86
65010;BME280;51556;50.002;22.014;2023-04-30T12:48:10;99351.83;;;13.74;60.81
65010;BME280;51556;50.002;22.014;2023-04-30T12:50:36;99346.52;;;13.78;60.75
65010;BME280;51556;50.002;22.014;2023-04-30T12:53:03;99351.85;;;13.82;60.73
65010;BME280;51556;50.002;22.014;2023-04-30T12:55:29;99350.77;;;13.87;61.13
65010;BME280;51556;50.002;22.014;2023-04-30T12:58:01;99354.11;;;13.92;60.80
65010;BME280;51556;50.002;22.014;2023-04-30T13:00:27;99350.33;;;13.94;60.59
65010;BME280;51556;50.002;22.014;2023-04-30T13:02:52;99351.77;;;13.93;61.19
65010;BME280;51556;50.002;22.014;2023-04-30T13:05:18;99350.20;;;13.97;61.14
65010;BME280;51556;50.002;22.014;2023-04-30T13:07:43;99347.25;;;13.96;61.05
65010;BME280;51556;50.002;22.014;2023-04-30T13:10:08;99341.89;;;13.93;60.95
65010;BME280;51556;50.002;22.014;2023-04-30T13:12:34;99343.98;;;13.93;61.12
65010;BME280;51556;50.002;22.014;2023-04-30T13:14:59;99347.11;;;13.90;61.39
65010;BME280;51556;50.002;22.014;2023-04-30T13:17:28;99351.68;;;13.73;63.23
65010;BME280;51556;50.002;22.014;2023-04-30T13:19:53;99352.34;;;13.46;64.07
65010;BME280;51556;50.002;22.014;2023-04-30T13:22:18;99352.38;;;13.31;64.52
65010;BME280;51556;50.002;22.014;2023-04-30T13:24:54;99351.34;;;13.31;64.59